Time;durP1;ratioP1;P1;durP2;ratioP2;P2;SDS_P1;SDS_P2;PMS_P1;PMS_P2;Temp;Humidity;BMP_temperature;BMP_pressure;BME280_temperature;BME280_humidity;BME280_pressure;Samples;Min_cycle;Max_cycle;Signal;HPM_P1;HPM_P2
2022/04/12 00:00:31;;;;;;;8.45;4.72;;;11.40;99.90;;;;;;5091122;28;20062;-74
2022/04/12 00:02:57;;;;;;;13.77;4.70;;;11.40;99.90;;;;;;5085836;28;20051;-73
2022/04/12 00:05:23;;;;;;;8.77;4.93;;;11.30;99.90;;;;;;5089759;28;20024;-72
2022/04/12 00:07:49;;;;;;;8.70;4.70;;;11.20;99.90;;;;;;5089610;28;20028;-73
2022/04/12 00:10:15;;;;;;;8.30;5.00;;;11.10;99.90;;;;;;5091031;28;20356;-73
2022/04/12 00:12:42;;;;;;;9.90;5.25;;;11.00;99.90;;;;;;5090623;28;20530;-74
2022/04/12 00:15:09;;;;;;;8.10;4.80;;;10.90;99.90;;;;;;5090660;28;20048;-72
2022/04/12 00:20:21;;;;;;;10.00;4.95;;;11.10;99.90;;;;;;5070581;28;20043;-74
2022/04/12 00:22:47;;;;;;;8.52;4.75;;;11.10;99.90;;;;;;5083136;28;20047;-73
2022/04/12 00:25:14;;;;;;;7.20;4.47;;;11.00;99.90;;;;;;5090696;28;20020;-74
2022/04/12 00:27:41;;;;;;;12.50;5.25;;;11.00;99.90;;;;;;5091035;28;20028;-74
2022/04/12 00:30:09;;;;;;;9.50;4.75;;;10.90;99.90;;;;;;5090754;28;20099;-73
2022/04/12 00:32:35;;;;;;;10.77;4.70;;;10.90;99.90;;;;;;5087838;28;20039;-73
2022/04/12 00:35:02;;;;;;;6.72;4.50;;;10.90;99.90;;;;;;5090518;28;20020;-73
2022/04/12 00:37:28;;;;;;;11.85;5.50;;;11.00;99.90;;;;;;5090540;28;20411;-73
2022/04/12 00:39:54;;;;;;;10.57;5.55;;;11.10;99.90;;;;;;5090624;28;20046;-72
2022/04/12 00:42:20;;;;;;;8.43;5.25;;;11.00;99.90;;;;;;5090214;28;20020;-73
2022/04/12 00:44:46;;;;;;;10.73;5.95;;;10.90;99.90;;;;;;5090478;28;20067;-73
2022/04/12 00:47:13;;;;;;;8.00;5.03;;;10.90;99.90;;;;;;5081419;28;20024;-72
2022/04/12 00:49:39;;;;;;;8.38;5.32;;;10.70;99.90;;;;;;5070653;28;20017;-73
2022/04/12 00:52:07;;;;;;;11.60;5.85;;;10.60;99.90;;;;;;5076749;28;20020;-72
2022/04/12 00:54:37;;;;;;;10.23;6.20;;;10.50;99.90;;;;;;5090615;28;20102;-73
2022/04/12 00:57:05;;;;;;;12.32;6.32;;;10.40;99.90;;;;;;5090210;28;20032;-73
2022/04/12 00:59:32;;;;;;;13.07;6.32;;;10.20;99.90;;;;;;5090671;28;20024;-73
2022/04/12 01:01:57;;;;;;;10.65;5.88;;;10.10;99.90;;;;;;5091377;28;20040;-73
2022/04/12 01:04:23;;;;;;;9.63;5.93;;;10.10;99.90;;;;;;5091345;28;20016;-74
2022/04/12 01:06:50;;;;;;;11.85;6.40;;;10.00;99.90;;;;;;5091348;28;20025;-73
2022/04/12 01:09:17;;;;;;;10.10;5.65;;;9.80;99.90;;;;;;5093004;28;20026;-73
2022/04/12 01:11:48;;;;;;;12.18;6.00;;;9.80;99.90;;;;;;5094029;28;20020;-73
2022/04/12 01:14:17;;;;;;;8.27;5.40;;;9.70;99.90;;;;;;5094342;28;20016;-73
2022/04/12 01:16:42;;;;;;;12.50;5.97;;;9.60;99.90;;;;;;5091102;28;20052;-73
2022/04/12 01:19:08;;;;;;;11.23;6.40;;;9.50;99.90;;;;;;5073964;28;20415;-73
2022/04/12 01:21:49;;;;;;;10.55;5.88;;;9.50;99.90;;;;;;5075381;28;20060;-73
2022/04/12 01:24:15;;;;;;;12.23;6.35;;;9.40;99.90;;;;;;5094111;28;20028;-72
2022/04/12 01:26:41;;;;;;;12.27;6.50;;;9.30;99.90;;;;;;5092539;28;20090;-73
2022/04/12 01:29:07;;;;;;;11.52;6.35;;;9.30;99.90;;;;;;5093762;28;20114;-74
2022/04/12 01:31:33;;;;;;;13.63;6.50;;;9.20;99.90;;;;;;5093129;28;20102;-73
2022/04/12 01:33:58;;;;;;;12.75;6.55;;;9.20;99.90;;;;;;5073565;28;20025;-73
2022/04/12 01:36:24;;;;;;;12.32;7.53;;;9.20;99.90;;;;;;5073297;28;20032;-73
2022/04/12 01:38:50;;;;;;;14.07;7.38;;;9.20;99.90;;;;;;5073498;28;20040;-73
2022/04/12 01:41:16;;;;;;;14.80;7.88;;;9.20;99.90;;;;;;5073333;28;20177;-72
2022/04/12 01:43:41;;;;;;;12.63;7.05;;;9.30;99.90;;;;;;5092519;28;20039;-73
2022/04/12 01:46:07;;;;;;;14.27;7.10;;;9.20;99.90;;;;;;5092617;28;20020;-73
2022/04/12 01:48:33;;;;;;;13.02;6.88;;;9.20;99.90;;;;;;5076445;28;20546;-73
2022/04/12 01:50:59;;;;;;;12.88;7.20;;;9.10;99.90;;;;;;5070300;28;20024;-72
2022/04/12 01:53:24;;;;;;;12.00;6.90;;;9.10;99.90;;;;;;5069925;28;20020;-73
2022/04/12 01:55:50;;;;;;;13.23;7.47;;;9.10;99.90;;;;;;5069936;28;20032;-74
2022/04/12 01:58:16;;;;;;;11.73;6.68;;;9.10;99.90;;;;;;5078759;28;20103;-73
2022/04/12 02:00:42;;;;;;;12.40;7.07;;;9.20;99.90;;;;;;5090167;28;20016;-72
2022/04/12 02:03:09;;;;;;;15.23;7.90;;;9.30;99.90;;;;;;5083699;28;20043;-73
2022/04/12 02:05:35;;;;;;;12.50;7.10;;;9.40;99.90;;;;;;5071771;28;20412;-73
2022/04/12 02:08:00;;;;;;;12.73;7.03;;;9.50;99.90;;;;;;5079516;28;20028;-72
2022/04/12 02:10:26;;;;;;;14.95;6.90;;;9.80;99.90;;;;;;5093078;28;20024;-72
2022/04/12 02:12:52;;;;;;;16.52;7.40;;;9.80;99.90;;;;;;5092295;28;20020;-73
2022/04/12 02:15:18;;;;;;;12.88;7.03;;;9.80;99.90;;;;;;5092923;28;20254;-73
2022/04/12 02:17:43;;;;;;;11.73;6.32;;;9.80;99.90;;;;;;5090129;28;20043;-73
2022/04/12 02:20:10;;;;;;;10.80;7.00;;;10.00;99.90;;;;;;5069953;28;20025;-72
2022/04/12 02:22:36;;;;;;;9.30;6.10;;;10.10;99.90;;;;;;5069403;28;21018;-72
2022/04/12 02:25:03;;;;;;;12.80;6.25;;;10.10;99.90;;;;;;5069224;28;20028;-71
2022/04/12 02:27:29;;;;;;;12.15;6.40;;;10.20;99.90;;;;;;5071304;28;20048;-73
2022/04/12 02:29:54;;;;;;;7.88;5.78;;;10.40;99.90;;;;;;5091804;28;20055;-72
2022/04/12 02:32:20;;;;;;;11.48;6.03;;;10.40;99.90;;;;;;5092727;28;20050;-73
2022/04/12 02:34:45;;;;;;;10.60;6.38;;;10.40;99.90;;;;;;5073717;28;20036;-73
2022/04/12 02:37:11;;;;;;;11.07;5.72;;;10.30;99.90;;;;;;5071937;28;20122;-72
2022/04/12 02:39:37;;;;;;;11.30;6.20;;;10.20;99.90;;;;;;5092063;28;20056;-72
2022/04/12 02:42:03;;;;;;;8.90;5.78;;;10.30;99.90;;;;;;5092870;28;20059;-73
2022/04/12 02:44:28;;;;;;;11.15;5.85;;;10.50;99.90;;;;;;5091257;28;20537;-73
2022/04/12 02:46:54;;;;;;;12.73;6.28;;;10.50;99.90;;;;;;5092385;28;20020;-73
2022/04/12 02:49:20;;;;;;;10.43;6.20;;;10.50;99.90;;;;;;5078368;28;20035;-72
2022/04/12 02:51:46;;;;;;;9.98;5.68;;;10.50;99.90;;;;;;5072138;28;20082;-72
2022/04/12 02:54:12;;;;;;;11.90;7.50;;;10.50;99.90;;;;;;5072128;28;20028;-72
2022/04/12 02:56:38;;;;;;;11.88;6.22;;;10.50;99.90;;;;;;5071959;28;20020;-72
2022/04/12 02:59:04;;;;;;;9.75;5.30;;;10.40;99.90;;;;;;5085527;28;20032;-72
2022/04/12 03:01:30;;;;;;;11.10;5.80;;;10.30;99.90;;;;;;5090620;28;20028;-72
2022/04/12 03:03:56;;;;;;;11.00;5.95;;;10.30;99.90;;;;;;5082010;28;20404;-72
2022/04/12 03:06:21;;;;;;;11.77;5.68;;;10.20;99.90;;;;;;5072033;28;20043;-72
2022/04/12 03:08:47;;;;;;;11.02;5.53;;;10.10;99.90;;;;;;5084155;28;20027;-72
2022/04/12 03:11:13;;;;;;;10.98;5.47;;;10.10;99.90;;;;;;5091871;28;20020;-72
2022/04/12 03:13:38;;;;;;;11.07;5.80;;;10.10;99.90;;;;;;5091731;28;20507;-72
2022/04/12 03:16:04;;;;;;;14.55;6.88;;;10.10;99.90;;;;;;5091900;28;20438;-72
2022/04/12 03:18:30;;;;;;;12.20;7.15;;;10.20;99.90;;;;;;5086399;28;20592;-73
2022/04/12 03:20:56;;;;;;;13.63;7.40;;;10.10;99.90;;;;;;5071700;28;20483;-73
2022/04/12 03:23:22;;;;;;;16.45;7.70;;;10.10;99.90;;;;;;5071213;28;20032;-73
2022/04/12 03:25:50;;;;;;;14.05;7.18;;;10.00;99.90;;;;;;5071048;28;20445;-73
2022/04/12 03:28:16;;;;;;;14.20;8.63;;;9.90;99.90;;;;;;5079471;28;20035;-71
2022/04/12 03:30:42;;;;;;;16.10;8.45;;;9.90;99.90;;;;;;5091764;28;20024;-72
2022/04/12 03:33:08;;;;;;;17.00;8.75;;;9.80;99.90;;;;;;5089814;28;20073;-73
2022/04/12 03:35:33;;;;;;;14.10;7.75;;;9.80;99.90;;;;;;5071271;28;20103;-73
2022/04/12 03:38:02;;;;;;;13.68;7.60;;;9.80;99.90;;;;;;5076839;28;20107;-73
2022/04/12 03:40:33;;;;;;;13.52;7.45;;;9.80;99.90;;;;;;5091861;28;20032;-73
2022/04/12 03:43:04;;;;;;;19.87;8.93;;;9.80;99.90;;;;;;5091791;28;20032;-73
2022/04/12 03:45:31;;;;;;;13.30;8.10;;;9.70;99.90;;;;;;5091537;28;20080;-73
2022/04/12 03:47:56;;;;;;;16.75;8.45;;;9.60;99.90;;;;;;5091218;28;20028;-73
2022/04/12 03:50:23;;;;;;;17.42;8.52;;;9.50;99.90;;;;;;5071721;28;20396;-73
2022/04/12 03:52:50;;;;;;;13.38;8.32;;;9.50;99.90;;;;;;5071046;28;20028;-73
2022/04/12 03:55:15;;;;;;;16.85;8.95;;;9.50;99.90;;;;;;5071028;28;20093;-73
2022/04/12 03:57:41;;;;;;;19.70;8.80;;;9.50;99.90;;;;;;5073470;28;20083;-72
2022/04/12 04:00:08;;;;;;;19.80;8.73;;;9.50;99.90;;;;;;5091095;28;20039;-72
2022/04/12 04:02:37;;;;;;;13.68;8.18;;;9.50;99.90;;;;;;5090969;28;20059;-72
2022/04/12 04:05:04;;;;;;;15.10;8.13;;;9.60;99.90;;;;;;5073750;28;20044;-73
2022/04/12 04:07:30;;;;;;;17.80;8.52;;;9.60;99.90;;;;;;5071660;28;20499;-73
2022/04/12 04:09:55;;;;;;;12.98;8.13;;;9.70;99.90;;;;;;5091230;28;20020;-73
2022/04/12 04:12:22;;;;;;;15.95;8.15;;;9.90;99.90;;;;;;5090990;28;20035;-73
2022/04/12 04:14:48;;;;;;;17.35;8.88;;;10.00;99.90;;;;;;5090875;28;20040;-73
2022/04/12 04:17:14;;;;;;;20.48;8.82;;;10.10;99.90;;;;;;5086261;28;20032;-73
2022/04/12 04:19:40;;;;;;;16.17;8.70;;;10.10;99.90;;;;;;5076351;28;20090;-73
2022/04/12 04:22:06;;;;;;;15.23;8.18;;;10.30;99.90;;;;;;5068386;28;20037;-74
2022/04/12 04:24:32;;;;;;;16.23;8.82;;;10.30;99.90;;;;;;5069237;28;20048;-73
2022/04/12 04:26:58;;;;;;;19.20;8.82;;;10.40;99.90;;;;;;5070578;28;20518;-73
2022/04/12 04:29:27;;;;;;;21.20;8.40;;;10.50;99.90;;;;;;5086986;28;20537;-74
2022/04/12 04:31:53;;;;;;;15.60;8.27;;;10.50;99.90;;;;;;5088288;28;20476;-73
2022/04/12 04:34:19;;;;;;;19.95;8.35;;;10.60;99.90;;;;;;5079813;28;20539;-73
2022/04/12 04:36:44;;;;;;;17.05;9.15;;;10.60;99.90;;;;;;5067300;28;20033;-73
2022/04/12 04:39:10;;;;;;;19.67;7.93;;;10.60;99.90;;;;;;5085232;28;20047;-73
2022/04/12 04:41:36;;;;;;;15.18;8.60;;;10.70;99.90;;;;;;5090652;28;20036;-73
2022/04/12 04:44:01;;;;;;;14.60;8.13;;;10.70;99.90;;;;;;5090924;28;20043;-72
2022/04/12 04:46:28;;;;;;;15.10;8.38;;;10.60;99.90;;;;;;5090656;28;20034;-73
2022/04/12 04:48:53;;;;;;;13.85;8.40;;;10.60;99.90;;;;;;5088017;28;20039;-72
2022/04/12 04:51:19;;;;;;;20.95;8.57;;;10.60;99.90;;;;;;5070307;28;20025;-72
2022/04/12 04:53:50;;;;;;;15.70;8.00;;;10.70;99.90;;;;;;5070495;28;20025;-72
2022/04/12 04:56:15;;;;;;;18.30;8.55;;;10.60;99.90;;;;;;5070309;28;20029;-73
2022/04/12 04:58:41;;;;;;;18.92;8.70;;;10.70;99.90;;;;;;5089130;28;20028;-72
2022/04/12 05:01:07;;;;;;;13.55;7.13;;;10.70;99.90;;;;;;5089231;28;20105;-72
2022/04/12 05:03:33;;;;;;;13.05;6.75;;;10.80;99.90;;;;;;5087428;28;20536;-73
2022/04/12 05:05:58;;;;;;;12.55;6.45;;;11.10;99.90;;;;;;5067826;28;20029;-72
2022/04/12 05:08:24;;;;;;;15.57;6.60;;;11.10;99.90;;;;;;5077828;28;20388;-73
2022/04/12 05:10:50;;;;;;;11.63;6.32;;;11.20;99.90;;;;;;5090425;28;20099;-71
2022/04/12 05:13:16;;;;;;;14.05;6.18;;;11.20;99.90;;;;;;5090303;28;20525;-73
2022/04/12 05:15:42;;;;;;;13.63;7.00;;;11.30;99.90;;;;;;5089996;28;20040;-73
2022/04/12 05:18:09;;;;;;;11.60;6.70;;;11.30;99.90;;;;;;5090185;28;20099;-73
2022/04/12 05:20:35;;;;;;;14.32;6.20;;;11.20;99.90;;;;;;5075725;28;20044;-73
2022/04/12 05:23:01;;;;;;;15.70;7.72;;;11.20;99.90;;;;;;5070213;28;20051;-72
2022/04/12 05:25:27;;;;;;;12.13;7.05;;;11.10;99.90;;;;;;5069817;28;20027;-73
2022/04/12 05:27:52;;;;;;;15.55;7.80;;;11.10;99.90;;;;;;5073005;28;20028;-73
2022/04/12 05:30:19;;;;;;;15.20;7.93;;;11.00;99.90;;;;;;5090208;28;20724;-73
2022/04/12 05:32:45;;;;;;;16.50;7.80;;;10.90;99.90;;;;;;5090344;28;20021;-73
2022/04/12 05:35:12;;;;;;;16.02;7.82;;;10.90;99.90;;;;;;5079230;28;20373;-72
2022/04/12 05:37:48;;;;;;;23.98;8.30;;;10.90;99.90;;;;;;5070976;28;20028;-73
2022/04/12 05:40:15;;;;;;;13.18;7.15;;;10.90;99.90;;;;;;5089593;28;20028;-73
2022/04/12 05:42:42;;;;;;;13.43;7.68;;;10.90;99.90;;;;;;5087003;28;20044;-73
2022/04/12 05:45:09;;;;;;;12.70;7.22;;;10.90;99.90;;;;;;5086531;28;20529;-73
2022/04/12 05:47:44;;;;;;;12.55;6.38;;;10.80;99.90;;;;;;5088954;28;20047;-73
2022/04/12 05:50:14;;;;;;;15.70;6.88;;;10.90;99.90;;;;;;5089997;28;20031;-73
2022/04/12 05:52:40;;;;;;;11.73;7.07;;;11.00;99.90;;;;;;5090348;28;20012;-73
2022/04/12 05:55:15;;;;;;;11.75;6.65;;;11.00;99.90;;;;;;5090512;28;20452;-74
2022/04/12 05:58:13;;;;;;;11.40;6.50;;;11.00;99.90;;;;;;5090287;28;20023;-73
2022/04/12 06:00:39;;;;;;;18.55;7.00;;;11.00;99.90;;;;;;5077392;28;20036;-74
2022/04/12 06:03:05;;;;;;;13.70;7.03;;;11.10;99.90;;;;;;5088354;28;20081;-73
2022/04/12 06:05:32;;;;;;;12.35;7.45;;;11.20;99.90;;;;;;5070046;28;20032;-73
2022/04/12 06:07:59;;;;;;;14.38;7.20;;;11.20;99.90;;;;;;5073154;28;20142;-72
2022/04/12 06:10:25;;;;;;;13.50;6.40;;;11.30;99.90;;;;;;5093369;28;20031;-72
2022/04/12 06:12:51;;;;;;;13.43;6.25;;;11.40;99.90;;;;;;5089765;28;20032;-72
2022/04/12 06:15:19;;;;;;;14.82;6.93;;;11.50;99.90;;;;;;5089535;28;20044;-73
2022/04/12 06:17:45;;;;;;;15.02;6.78;;;11.60;99.90;;;;;;5092540;28;20024;-73
2022/04/12 06:20:16;;;;;;;13.00;6.53;;;11.70;99.90;;;;;;5093184;28;20456;-73
2022/04/12 06:22:42;;;;;;;11.60;6.00;;;11.70;99.90;;;;;;5090970;28;20036;-72
2022/04/12 06:25:11;;;;;;;12.05;6.65;;;11.80;99.90;;;;;;5072103;28;20028;-72
2022/04/12 06:27:42;;;;;;;9.63;5.60;;;11.80;99.90;;;;;;5072917;28;20032;-73
2022/04/12 06:30:36;;;;;;;9.30;5.68;;;11.90;99.90;;;;;;5075092;28;20114;-73
2022/04/12 06:33:02;;;;;;;13.00;5.25;;;12.10;99.90;;;;;;5067761;28;20036;-73
2022/04/12 06:35:28;;;;;;;10.15;4.88;;;12.20;99.90;;;;;;5071224;28;20025;-73
2022/04/12 06:37:56;;;;;;;9.07;4.63;;;12.40;99.90;;;;;;5075275;28;20020;-73
2022/04/12 06:40:22;;;;;;;11.70;4.45;;;12.50;99.90;;;;;;5091556;28;20186;-74
2022/04/12 06:42:49;;;;;;;7.15;5.00;;;12.50;99.90;;;;;;5091198;28;20047;-73
2022/04/12 06:45:15;;;;;;;11.07;4.22;;;12.60;99.90;;;;;;5092532;28;20039;-72
2022/04/12 06:47:41;;;;;;;10.82;4.32;;;12.60;99.90;;;;;;5092277;28;20034;-72
2022/04/12 06:50:09;;;;;;;6.93;3.88;;;12.70;99.90;;;;;;5092646;28;20032;-73
2022/04/12 06:52:34;;;;;;;6.55;3.97;;;12.80;99.90;;;;;;5089653;28;20056;-72
2022/04/12 06:55:01;;;;;;;12.07;4.30;;;12.80;99.90;;;;;;5069451;28;20067;-73
2022/04/12 06:57:34;;;;;;;10.00;4.38;;;12.90;99.90;;;;;;5071130;28;20028;-74
2022/04/12 07:00:00;;;;;;;9.57;4.75;;;13.00;99.90;;;;;;5090128;28;20111;-73
2022/04/12 07:02:26;;;;;;;10.63;4.22;;;13.10;99.90;;;;;;5089787;28;20036;-73
2022/04/12 07:04:51;;;;;;;9.43;4.15;;;13.20;99.90;;;;;;5089048;28;20357;-73
2022/04/12 07:07:17;;;;;;;12.50;5.00;;;13.40;99.90;;;;;;5090064;28;20064;-73
2022/04/12 07:09:43;;;;;;;9.05;4.22;;;13.50;99.90;;;;;;5075482;28;20032;-73
2022/04/12 07:12:09;;;;;;;5.82;4.25;;;13.50;99.90;;;;;;5071697;28;20051;-73
2022/04/12 07:14:34;;;;;;;12.85;3.97;;;13.60;99.90;;;;;;5071526;28;20411;-72
2022/04/12 07:17:00;;;;;;;6.63;4.13;;;13.60;99.90;;;;;;5071564;28;20481;-71
2022/04/12 07:19:26;;;;;;;12.32;4.10;;;13.80;99.90;;;;;;5086266;28;20024;-71
2022/04/12 07:21:52;;;;;;;7.57;3.35;;;14.00;99.90;;;;;;5091607;28;20052;-70
2022/04/12 07:24:19;;;;;;;7.78;3.60;;;14.10;99.90;;;;;;5088925;28;20063;-71
2022/04/12 07:26:44;;;;;;;6.00;3.80;;;14.20;99.90;;;;;;5088835;28;20069;-71
2022/04/12 07:29:10;;;;;;;10.02;3.63;;;14.10;99.90;;;;;;5078374;28;20443;-71
2022/04/12 07:31:37;;;;;;;7.18;3.70;;;14.10;99.90;;;;;;5083894;28;20095;-70
2022/04/12 07:34:02;;;;;;;9.93;4.07;;;14.10;99.90;;;;;;5088120;28;20350;-71
2022/04/12 07:36:28;;;;;;;12.70;3.50;;;14.20;99.90;;;;;;5079570;28;20387;-71
2022/04/12 07:38:54;;;;;;;6.80;3.42;;;14.30;99.90;;;;;;5080732;28;20025;-70
2022/04/12 07:41:20;;;;;;;8.05;3.92;;;14.60;99.90;;;;;;5070464;28;20054;-70
2022/04/12 07:43:46;;;;;;;9.60;3.55;;;14.80;99.90;;;;;;5070438;28;20043;-71
2022/04/12 07:46:13;;;;;;;11.75;4.72;;;14.90;99.90;;;;;;5069211;28;20342;-71
2022/04/12 07:48:40;;;;;;;9.73;3.65;;;15.00;99.90;;;;;;5076905;28;20024;-71
2022/04/12 07:51:05;;;;;;;11.27;3.75;;;15.10;99.90;;;;;;5086540;28;20024;-71
2022/04/12 07:53:31;;;;;;;4.85;3.10;;;15.20;99.90;;;;;;5085320;28;20143;-70
2022/04/12 07:55:57;;;;;;;5.55;3.00;;;15.20;99.90;;;;;;5065888;28;20032;-72
2022/04/12 07:58:23;;;;;;;7.15;3.22;;;15.20;99.90;;;;;;5072477;28;20028;-71
2022/04/12 08:00:49;;;;;;;11.13;3.47;;;15.20;99.90;;;;;;5087965;28;20046;-71
2022/04/12 08:03:15;;;;;;;6.10;3.15;;;15.20;99.90;;;;;;5087973;28;20357;-72
2022/04/12 08:05:40;;;;;;;5.53;3.45;;;15.20;99.90;;;;;;5087412;28;20523;-71
2022/04/12 08:08:06;;;;;;;6.85;3.75;;;15.20;99.90;;;;;;5087698;28;20055;-70
2022/04/12 08:10:32;;;;;;;8.65;2.75;;;15.20;99.90;;;;;;5079649;28;20027;-71
2022/04/12 08:12:58;;;;;;;5.63;2.75;;;15.40;99.90;;;;;;5071132;28;20600;-71
2022/04/12 08:15:26;;;;;;;8.55;3.20;;;15.60;99.90;;;;;;5068536;28;20272;-71
2022/04/12 08:17:51;;;;;;;10.23;3.13;;;15.50;99.90;;;;;;5068044;28;20043;-70
2022/04/12 08:20:17;;;;;;;8.27;2.60;;;15.60;99.90;;;;;;5085604;28;20024;-70
2022/04/12 08:22:43;;;;;;;9.02;3.55;;;15.60;99.90;;;;;;5081624;28;20396;-71
2022/04/12 08:25:10;;;;;;;8.70;3.15;;;15.70;99.90;;;;;;5076265;28;20024;-71
2022/04/12 08:27:36;;;;;;;8.50;2.83;;;15.80;99.90;;;;;;5084482;28;20032;-72
2022/04/12 08:30:06;;;;;;;9.95;2.70;;;15.90;99.90;;;;;;5089006;28;20560;-71
2022/04/12 08:32:35;;;;;;;8.20;2.90;;;15.80;99.90;;;;;;5088297;28;20031;-71
2022/04/12 08:35:02;;;;;;;6.78;3.15;;;15.80;99.90;;;;;;5086768;28;20059;-70
2022/04/12 08:37:28;;;;;;;7.57;3.00;;;15.90;99.90;;;;;;5089469;28;20024;-70
2022/04/12 08:39:54;;;;;;;8.32;2.72;;;15.80;99.90;;;;;;5077318;28;20025;-69
2022/04/12 08:42:21;;;;;;;5.85;2.90;;;15.70;99.90;;;;;;5086583;28;20130;-73
2022/04/12 08:44:48;;;;;;;7.50;2.42;;;15.60;99.90;;;;;;5088735;28;20073;-71
2022/04/12 08:47:15;;;;;;;5.03;2.60;;;15.50;99.90;;;;;;5089209;28;20031;-70
2022/04/12 08:49:42;;;;;;;5.25;2.65;;;15.40;99.90;;;;;;5089054;28;20501;-70
2022/04/12 08:52:11;;;;;;;8.10;2.72;;;15.60;99.90;;;;;;5089339;28;20084;-70
2022/04/12 08:54:41;;;;;;;5.05;2.67;;;15.70;99.90;;;;;;5086655;28;20416;-72
2022/04/12 08:57:08;;;;;;;7.18;2.70;;;16.00;99.90;;;;;;5081382;28;20107;-71
2022/04/12 08:59:33;;;;;;;5.28;2.78;;;16.30;99.90;;;;;;5087960;28;20531;-70
2022/04/12 09:01:59;;;;;;;7.50;2.60;;;16.60;99.90;;;;;;5089436;28;20101;-71
2022/04/12 09:04:28;;;;;;;5.78;2.50;;;16.70;99.90;;;;;;5088885;28;20225;-73
2022/04/12 09:06:55;;;;;;;5.32;2.28;;;16.70;99.90;;;;;;5088375;28;20028;-71
2022/04/12 09:09:25;;;;;;;9.13;2.60;;;16.60;99.90;;;;;;5086956;28;20032;-70
2022/04/12 09:12:02;;;;;;;5.60;2.40;;;16.30;99.90;;;;;;5090089;28;20025;-70
2022/04/12 09:14:47;;;;;;;6.50;2.90;;;15.90;99.90;;;;;;5090136;28;20484;-71
2022/04/12 09:17:19;;;;;;;8.20;2.72;;;15.80;99.90;;;;;;5089877;28;20067;-70
2022/04/12 09:19:48;;;;;;;9.75;3.33;;;15.90;99.90;;;;;;5086979;28;20143;-71
2022/04/12 09:22:17;;;;;;;10.13;2.83;;;15.80;99.90;;;;;;5090375;28;20423;-71
2022/04/12 09:24:44;;;;;;;6.55;3.15;;;15.70;99.90;;;;;;5087447;28;20040;-70
2022/04/12 09:27:14;;;;;;;6.47;3.10;;;15.50;99.90;;;;;;5079555;28;20157;-70
2022/04/12 09:30:01;;;;;;;6.95;3.08;;;15.40;99.90;;;;;;5093795;28;20476;-71
2022/04/12 09:32:29;;;;;;;8.93;3.28;;;15.40;99.90;;;;;;5093977;28;20389;-71
2022/04/12 09:34:56;;;;;;;9.93;2.88;;;15.50;99.90;;;;;;5093821;28;20074;-70
2022/04/12 09:37:24;;;;;;;8.25;3.45;;;15.70;99.90;;;;;;5093429;28;20024;-71
2022/04/12 09:39:57;;;;;;;7.60;2.80;;;15.80;99.90;;;;;;5088908;28;20102;-71
2022/04/12 09:42:43;;;;;;;10.82;3.25;;;16.00;99.90;;;;;;5093193;28;20075;-71
2022/04/12 09:45:39;;;;;;;8.00;3.08;;;16.40;99.90;;;;;;5093190;28;20027;-70
2022/04/12 09:48:08;;;;;;;8.38;3.10;;;16.30;99.90;;;;;;5080350;28;20036;-70
2022/04/12 09:50:34;;;;;;;8.90;3.08;;;16.40;99.90;;;;;;5093306;28;20161;-71
2022/04/12 09:53:02;;;;;;;8.60;3.47;;;16.40;99.90;;;;;;5093212;28;20059;-71
2022/04/12 09:55:42;;;;;;;6.65;2.90;;;16.50;99.90;;;;;;5091678;28;20024;-71
2022/04/12 09:58:13;;;;;;;9.82;3.30;;;16.30;99.90;;;;;;5093291;28;20167;-71
2022/04/12 10:00:41;;;;;;;13.43;3.00;;;15.90;99.90;;;;;;5091379;28;20020;-71
2022/04/12 10:03:09;;;;;;;8.65;2.90;;;15.90;99.90;;;;;;5090363;28;20032;-69
2022/04/12 10:05:35;;;;;;;8.32;3.17;;;16.10;99.90;;;;;;5092188;28;20028;-72
2022/04/12 10:08:03;;;;;;;13.27;3.10;;;16.20;99.90;;;;;;5091705;28;20039;-70
2022/04/12 10:10:29;;;;;;;8.00;2.55;;;16.50;99.90;;;;;;5090446;28;20032;-71
2022/04/12 10:12:56;;;;;;;7.03;3.15;;;16.80;99.90;;;;;;5092948;28;20024;-70
2022/04/12 10:15:23;;;;;;;7.50;3.28;;;17.00;99.90;;;;;;5088962;28;20036;-72
2022/04/12 10:17:50;;;;;;;8.45;3.17;;;16.90;99.90;;;;;;5091902;28;20139;-71
2022/04/12 10:20:18;;;;;;;7.60;3.25;;;16.80;99.90;;;;;;5092546;28;20024;-71
2022/04/12 10:22:45;;;;;;;9.95;2.97;;;16.30;99.90;;;;;;5092613;28;20478;-71
2022/04/12 10:25:14;;;;;;;7.35;3.08;;;16.40;99.90;;;;;;5086642;28;20030;-70
2022/04/12 10:27:41;;;;;;;7.47;3.00;;;16.30;99.90;;;;;;5088736;28;20038;-71
2022/04/12 10:30:28;;;;;;;6.25;2.90;;;16.30;99.90;;;;;;5092509;28;20514;-69
2022/04/12 10:33:04;;;;;;;8.00;2.90;;;16.50;99.90;;;;;;5089317;28;20166;-70
2022/04/12 10:35:51;;;;;;;6.05;2.80;;;16.70;99.90;;;;;;5088306;28;20031;-70
2022/04/12 10:38:24;;;;;;;10.88;3.38;;;16.80;99.90;;;;;;5089627;28;20038;-70
2022/04/12 10:40:55;;;;;;;9.20;3.13;;;16.90;99.90;;;;;;5080855;28;20460;-69
2022/04/12 10:43:30;;;;;;;11.05;2.90;;;16.90;99.90;;;;;;5078335;28;20032;-70
2022/04/12 10:45:57;;;;;;;8.00;2.92;;;16.70;99.90;;;;;;5092138;28;20107;-69
2022/04/12 10:48:31;;;;;;;10.07;3.03;;;16.60;99.90;;;;;;5090055;28;20051;-70
2022/04/12 10:51:00;;;;;;;9.57;2.78;;;16.50;99.90;;;;;;5090908;28;20047;-70
2022/04/12 10:53:38;;;;;;;9.90;3.40;;;16.20;99.90;;;;;;5091416;28;20460;-70
2022/04/12 10:56:12;;;;;;;11.65;3.10;;;16.00;99.90;;;;;;5086668;28;20036;-70
2022/04/12 10:58:38;;;;;;;9.05;3.13;;;15.90;99.90;;;;;;5090797;28;20032;-70
2022/04/12 11:01:05;;;;;;;6.00;2.67;;;15.90;99.90;;;;;;5091877;28;20062;-71
2022/04/12 11:03:43;;;;;;;12.07;2.75;;;15.80;99.90;;;;;;5082844;28;20457;-70
2022/04/12 11:06:14;;;;;;;8.85;2.95;;;16.10;99.90;;;;;;5071987;28;20020;-71
2022/04/12 11:08:43;;;;;;;13.43;3.17;;;16.00;99.90;;;;;;5081823;28;20115;-70
2022/04/12 11:11:10;;;;;;;12.27;3.22;;;15.80;99.90;;;;;;5079487;28;20025;-70
2022/04/12 11:13:37;;;;;;;7.03;3.15;;;15.90;99.90;;;;;;5071795;28;20048;-71
2022/04/12 11:16:11;;;;;;;12.82;3.15;;;16.00;99.90;;;;;;5074487;28;20048;-70
2022/04/12 11:18:48;;;;;;;12.95;3.45;;;16.10;99.90;;;;;;5090745;28;20518;-70
2022/04/12 11:21:16;;;;;;;10.27;3.40;;;15.90;99.90;;;;;;5086760;28;20027;-70
2022/04/12 11:23:56;;;;;;;11.90;3.35;;;16.00;99.90;;;;;;5091891;28;20039;-70
2022/04/12 11:26:47;;;;;;;9.50;3.10;;;16.30;99.90;;;;;;5075118;28;20032;-70
2022/04/12 11:29:20;;;;;;;14.63;3.25;;;16.60;99.90;;;;;;5084705;28;20031;-72
2022/04/12 11:31:48;;;;;;;10.90;2.80;;;16.50;99.90;;;;;;5086343;28;20086;-72
2022/04/12 11:34:15;;;;;;;7.72;2.83;;;16.70;99.90;;;;;;5084280;28;20104;-71
2022/04/12 11:36:50;;;;;;;11.55;3.05;;;16.70;99.90;;;;;;5091264;28;20056;-71
2022/04/12 11:39:24;;;;;;;8.82;3.22;;;16.80;99.90;;;;;;5090213;28;20101;-70
2022/04/12 11:41:50;;;;;;;10.50;2.95;;;16.90;99.90;;;;;;5075253;28;20024;-71
2022/04/12 11:44:21;;;;;;;10.18;3.47;;;16.80;99.90;;;;;;5083504;28;20046;-71
2022/04/12 11:46:57;;;;;;;12.73;3.08;;;17.10;99.90;;;;;;5090369;28;20031;-71
2022/04/12 11:49:30;;;;;;;9.13;2.85;;;17.00;99.90;;;;;;5091092;28;20036;-70
2022/04/12 11:51:59;;;;;;;10.73;3.17;;;17.10;99.90;;;;;;5090925;28;20418;-71
2022/04/12 11:54:32;;;;;;;10.52;2.95;;;17.30;99.90;;;;;;5089919;28;20043;-71
2022/04/12 11:57:02;;;;;;;9.40;3.05;;;17.50;99.90;;;;;;5089402;28;20307;-71
2022/04/12 11:59:29;;;;;;;12.93;3.38;;;17.70;99.90;;;;;;5090994;28;20028;-70
2022/04/12 12:02:01;;;;;;;12.38;2.97;;;17.90;99.90;;;;;;5089009;28;20176;-70
2022/04/12 12:04:32;;;;;;;12.73;3.38;;;18.10;99.90;;;;;;5087110;28;20580;-70
2022/04/12 12:07:08;;;;;;;13.77;3.20;;;18.00;99.80;;;;;;5085036;28;20232;-70
2022/04/12 12:09:35;;;;;;;15.95;4.20;;;17.70;99.90;;;;;;5090786;28;20028;-71
2022/04/12 12:12:09;;;;;;;10.02;3.58;;;17.20;99.90;;;;;;5088000;28;20046;-69
2022/04/12 12:14:36;;;;;;;10.50;3.10;;;16.40;99.90;;;;;;5086838;28;20028;-69
2022/04/12 12:17:20;;;;;;;13.10;3.35;;;16.40;99.90;;;;;;5088541;28;20028;-71
2022/04/12 12:19:47;;;;;;;14.88;3.13;;;16.90;99.90;;;;;;5088407;28;20046;-70
2022/04/12 12:22:13;;;;;;;9.18;2.97;;;17.60;99.90;;;;;;5086178;28;20041;-71
2022/04/12 12:24:56;;;;;;;10.80;2.40;;;18.00;99.10;;;;;;5090274;28;20036;-71
2022/04/12 12:27:35;;;;;;;8.07;2.90;;;18.60;97.30;;;;;;5082374;28;20135;-71
2022/04/12 12:30:10;;;;;;;10.70;2.90;;;18.50;95.20;;;;;;5081347;28;20112;-70
2022/04/12 12:32:38;;;;;;;9.43;3.17;;;18.20;96.30;;;;;;5086798;28;20111;-69
2022/04/12 12:35:05;;;;;;;15.98;3.53;;;18.40;96.40;;;;;;5086345;28;20111;-69
2022/04/12 12:37:31;;;;;;;10.73;2.92;;;18.80;94.20;;;;;;5087167;28;20375;-71
2022/04/12 12:39:57;;;;;;;10.32;2.78;;;19.20;91.70;;;;;;5086922;28;20028;-72
2022/04/12 12:42:23;;;;;;;8.80;2.80;;;18.80;91.70;;;;;;5079531;28;20460;-70
2022/04/12 12:44:49;;;;;;;7.10;2.30;;;18.30;93.60;;;;;;5090301;28;20047;-71
2022/04/12 12:47:15;;;;;;;17.60;3.47;;;18.10;96.20;;;;;;5089414;28;20028;-72
2022/04/12 12:49:42;;;;;;;8.30;3.08;;;18.10;96.40;;;;;;5090334;28;20016;-71